createdAt,value
2023-05-10T00:00:33.972Z,18.00
2023-05-10T00:03:00.283Z,17.99
2023-05-10T00:05:26.450Z,17.99
2023-05-10T00:07:52.554Z,17.99
2023-05-10T00:10:18.791Z,17.99
2023-05-10T00:12:45.028Z,17.99
2023-05-10T00:15:11.157Z,17.98
2023-05-10T00:17:37.313Z,17.98
2023-05-10T00:20:03.488Z,17.98
2023-05-10T00:22:29.641Z,17.98
2023-05-10T00:24:55.760Z,17.97
2023-05-10T00:27:21.867Z,17.97
2023-05-10T00:29:48.016Z,17.96
2023-05-10T00:32:14.165Z,17.97
2023-05-10T00:34:40.279Z,17.98
2023-05-10T00:37:06.395Z,17.98
2023-05-10T00:39:32.532Z,17.96
2023-05-10T00:41:58.637Z,17.96
2023-05-10T00:44:24.778Z,17.97
2023-05-10T00:46:50.892Z,17.96
2023-05-10T00:49:17.012Z,17.96
2023-05-10T00:51:43.180Z,17.95
2023-05-10T00:54:09.284Z,17.96
2023-05-10T00:56:35.397Z,17.96
2023-05-10T00:59:01.569Z,17.96
2023-05-10T01:01:27.697Z,17.95
2023-05-10T01:03:53.815Z,17.95
2023-05-10T01:06:19.994Z,17.95
2023-05-10T01:08:46.099Z,17.95
2023-05-10T01:11:12.209Z,17.94
2023-05-10T01:13:38.370Z,17.94
2023-05-10T01:16:04.552Z,17.93
2023-05-10T01:18:30.683Z,17.93
2023-05-10T01:20:56.800Z,17.93
2023-05-10T01:23:22.886Z,17.92
2023-05-10T01:25:49.002Z,17.93
2023-05-10T01:28:15.117Z,17.93
2023-05-10T01:30:41.202Z,17.93
2023-05-10T01:33:07.447Z,17.93
2023-05-10T01:35:33.601Z,17.93
2023-05-10T01:37:59.726Z,17.93
2023-05-10T01:40:25.837Z,17.91
2023-05-10T01:42:51.984Z,17.91
2023-05-10T01:45:18.079Z,17.91
2023-05-10T01:47:44.214Z,17.92
2023-05-10T01:50:10.355Z,17.91
2023-05-10T01:52:36.659Z,17.91
2023-05-10T01:55:02.809Z,17.91
2023-05-10T01:57:28.956Z,17.90
2023-05-10T01:59:55.038Z,17.91
2023-05-10T02:02:21.147Z,17.90
2023-05-10T02:04:47.285Z,17.91
2023-05-10T02:07:13.390Z,17.90
2023-05-10T02:09:39.488Z,17.89
2023-05-10T02:12:05.649Z,17.88
2023-05-10T02:14:31.757Z,17.90
2023-05-10T02:16:57.949Z,17.90
2023-05-10T02:19:24.182Z,17.90
2023-05-10T02:21:50.370Z,17.88
2023-05-10T02:24:16.458Z,17.87
2023-05-10T02:26:42.579Z,17.86
2023-05-10T02:29:08.689Z,17.87
2023-05-10T02:31:34.974Z,17.87
2023-05-10T02:34:01.154Z,17.86
2023-05-10T02:36:27.254Z,17.87
2023-05-10T02:38:53.348Z,17.87
2023-05-10T02:41:19.458Z,17.87
2023-05-10T02:43:45.578Z,17.87
2023-05-10T02:46:11.715Z,17.86
2023-05-10T02:48:37.854Z,17.86
2023-05-10T02:51:03.960Z,17.86
2023-05-10T02:53:30.064Z,17.85
2023-05-10T02:55:56.183Z,17.85
2023-05-10T02:58:22.274Z,17.87
2023-05-10T03:00:48.379Z,17.86
2023-05-10T03:03:14.875Z,17.84
2023-05-10T03:05:40.999Z,17.84
2023-05-10T03:08:07.151Z,17.85
2023-05-10T03:10:33.444Z,17.85
2023-05-10T03:12:59.562Z,17.84
2023-05-10T03:15:25.715Z,17.85
2023-05-10T03:17:51.853Z,17.84
2023-05-10T03:20:18.120Z,17.84
2023-05-10T03:22:44.479Z,17.83
2023-05-10T03:25:10.601Z,17.84
2023-05-10T03:27:36.794Z,17.83
2023-05-10T03:30:02.945Z,17.84
2023-05-10T03:32:29.091Z,17.83
2023-05-10T03:34:55.225Z,17.83
2023-05-10T03:37:21.352Z,17.84
2023-05-10T03:39:47.502Z,17.83
2023-05-10T03:42:13.609Z,17.81
2023-05-10T03:44:39.713Z,17.83
2023-05-10T03:47:05.870Z,17.82
2023-05-10T03:49:31.991Z,17.81
2023-05-10T03:51:58.093Z,17.82
2023-05-10T03:54:24.212Z,17.81
2023-05-10T03:56:50.326Z,17.81
2023-05-10T03:59:16.439Z,17.80
2023-05-10T04:01:42.589Z,17.81
2023-05-10T04:04:08.868Z,17.81
2023-05-10T04:06:35.053Z,17.81
2023-05-10T04:09:01.259Z,17.80
2023-05-10T04:11:27.362Z,17.80
2023-05-10T04:13:53.478Z,17.79
2023-05-10T04:16:19.746Z,17.80
2023-05-10T04:18:45.883Z,17.80
2023-05-10T04:21:11.997Z,17.79
2023-05-10T04:23:38.113Z,17.80
2023-05-10T04:26:04.196Z,17.79
2023-05-10T04:28:30.279Z,17.79
2023-05-10T04:30:56.426Z,17.79
2023-05-10T04:33:22.547Z,17.79
2023-05-10T04:35:48.638Z,17.77
2023-05-10T04:38:14.746Z,17.78
2023-05-10T04:40:40.852Z,17.78
2023-05-10T04:43:06.960Z,17.77
2023-05-10T04:45:33.083Z,17.77
2023-05-10T04:47:59.239Z,17.78
2023-05-10T04:50:25.427Z,17.77
2023-05-10T04:52:53.216Z,17.77
2023-05-10T04:55:19.489Z,17.77
2023-05-10T04:57:45.618Z,17.77
2023-05-10T05:00:11.742Z,17.76
2023-05-10T05:02:38.010Z,17.75
2023-05-10T05:05:04.174Z,17.75
2023-05-10T05:07:30.313Z,17.75
2023-05-10T05:09:56.399Z,17.74
2023-05-10T05:12:22.503Z,17.74
2023-05-10T05:14:48.628Z,17.75
2023-05-10T05:17:14.737Z,17.75
2023-05-10T05:19:40.838Z,17.74
2023-05-10T05:22:06.944Z,17.74
2023-05-10T05:24:33.034Z,17.73
2023-05-10T05:26:59.124Z,17.73
2023-05-10T05:29:25.242Z,17.73
2023-05-10T05:31:52.764Z,17.74
2023-05-10T05:34:20.173Z,17.74
2023-05-10T05:36:46.301Z,17.74
2023-05-10T05:39:12.414Z,17.73
2023-05-10T05:41:38.516Z,17.73
2023-05-10T05:44:04.639Z,17.73
2023-05-10T05:46:30.753Z,17.73
2023-05-10T05:48:56.844Z,17.73
2023-05-10T05:51:22.963Z,17.72
2023-05-10T05:53:49.100Z,17.72
2023-05-10T05:56:15.209Z,17.72
2023-05-10T05:58:41.324Z,17.71
2023-05-10T06:01:07.416Z,17.71
2023-05-10T06:03:33.631Z,17.71
2023-05-10T06:05:59.779Z,17.71
2023-05-10T06:08:25.867Z,17.71
2023-05-10T06:10:51.955Z,17.71
2023-05-10T06:13:18.676Z,17.70
2023-05-10T06:15:44.805Z,17.70
2023-05-10T06:18:10.935Z,17.71
2023-05-10T06:20:37.105Z,17.71
2023-05-10T06:23:03.208Z,17.71
2023-05-10T06:25:29.325Z,17.70
2023-05-10T06:27:55.455Z,17.70
2023-05-10T06:30:21.567Z,17.68
2023-05-10T06:32:47.733Z,17.69
2023-05-10T06:35:13.900Z,17.68
2023-05-10T06:37:40.006Z,17.70
2023-05-10T06:40:06.108Z,17.70
2023-05-10T06:42:32.238Z,17.68
2023-05-10T06:44:58.319Z,17.68
2023-05-10T06:47:24.406Z,17.68
2023-05-10T06:49:50.537Z,17.69
2023-05-10T06:52:16.632Z,17.68
2023-05-10T06:54:42.723Z,17.67
2023-05-10T06:57:16.051Z,17.68
2023-05-10T06:59:49.851Z,17.67
2023-05-10T07:02:16.062Z,17.67
2023-05-10T07:04:42.278Z,17.67
2023-05-10T07:07:08.382Z,17.67
2023-05-10T07:09:34.550Z,17.67
2023-05-10T07:12:00.682Z,17.67
2023-05-10T07:14:26.797Z,17.67
2023-05-10T07:16:53.013Z,17.66
2023-05-10T07:19:19.115Z,17.66
2023-05-10T07:21:45.217Z,17.66
2023-05-10T07:24:11.382Z,17.66
2023-05-10T07:26:37.492Z,17.65
2023-05-10T07:29:03.580Z,17.65
2023-05-10T07:31:29.746Z,17.65
2023-05-10T07:33:55.878Z,17.66
2023-05-10T07:36:21.986Z,17.66
2023-05-10T07:38:48.112Z,17.65
2023-05-10T07:41:14.223Z,17.65
2023-05-10T07:43:40.533Z,17.65
2023-05-10T07:46:06.773Z,17.65
2023-05-10T07:48:32.877Z,17.64
2023-05-10T07:51:00.842Z,17.65
2023-05-10T07:53:27.243Z,17.64
2023-05-10T07:55:56.002Z,17.65
2023-05-10T07:58:22.208Z,17.65
2023-05-10T08:00:48.742Z,17.65
2023-05-10T08:03:15.028Z,17.64
2023-05-10T08:05:41.232Z,17.65
2023-05-10T08:08:07.370Z,17.64
2023-05-10T08:10:33.456Z,17.64
2023-05-10T08:15:34.706Z,17.64
2023-05-10T08:18:00.892Z,17.64
2023-05-10T08:20:27.058Z,17.64
2023-05-10T08:22:53.179Z,17.66
2023-05-10T08:25:19.584Z,17.64
2023-05-10T08:27:45.951Z,17.65
2023-05-10T08:30:12.208Z,17.66
2023-05-10T08:32:38.309Z,17.65
2023-05-10T08:35:04.469Z,17.65
2023-05-10T08:37:30.589Z,17.65
2023-05-10T08:39:56.687Z,17.64
2023-05-10T08:42:22.786Z,17.66
2023-05-10T08:44:49.474Z,17.66
2023-05-10T08:47:15.898Z,17.66
2023-05-10T08:49:42.040Z,17.65
2023-05-10T08:52:08.231Z,17.65
2023-05-10T08:54:34.356Z,17.65
2023-05-10T08:57:00.457Z,17.65
2023-05-10T08:59:26.578Z,17.66
2023-05-10T09:01:52.688Z,17.66
2023-05-10T09:04:18.914Z,17.66
2023-05-10T09:06:45.082Z,17.67
2023-05-10T09:09:11.239Z,17.67
2023-05-10T09:11:37.358Z,17.66
2023-05-10T09:14:03.495Z,17.66
2023-05-10T09:16:29.684Z,17.67
2023-05-10T09:18:55.890Z,17.67
2023-05-10T09:21:22.273Z,17.68
2023-05-10T09:23:48.810Z,17.67
2023-05-10T09:26:15.038Z,17.67
2023-05-10T09:28:41.145Z,17.67
2023-05-10T09:31:07.258Z,17.68
2023-05-10T09:33:33.372Z,17.67
2023-05-10T09:35:59.492Z,17.69
2023-05-10T09:38:25.597Z,17.68
2023-05-10T09:40:51.691Z,17.70
2023-05-10T09:43:17.805Z,17.69
2023-05-10T09:45:43.915Z,17.69
2023-05-10T09:48:10.096Z,17.70
2023-05-10T09:50:36.231Z,17.71
2023-05-10T09:53:02.345Z,17.69
2023-05-10T09:55:28.464Z,17.70
2023-05-10T09:57:54.596Z,17.69
2023-05-10T10:00:20.704Z,17.70
2023-05-10T10:02:46.866Z,17.70
2023-05-10T10:05:13.034Z,17.71
2023-05-10T10:07:39.200Z,17.71
2023-05-10T10:10:05.288Z,17.71
2023-05-10T10:12:31.513Z,17.71
2023-05-10T10:14:57.615Z,17.71
2023-05-10T10:17:23.760Z,17.71
2023-05-10T10:19:49.887Z,17.71
2023-05-10T10:22:16.025Z,17.71
2023-05-10T10:24:42.157Z,17.72
2023-05-10T10:27:08.283Z,17.72
2023-05-10T10:29:34.389Z,17.73
2023-05-10T10:32:00.754Z,17.73
2023-05-10T10:34:26.956Z,17.73
2023-05-10T10:36:53.058Z,17.73
2023-05-10T10:39:19.174Z,17.73
2023-05-10T10:41:45.294Z,17.75
2023-05-10T10:44:11.394Z,17.74
2023-05-10T10:46:37.545Z,17.74
2023-05-10T10:49:03.733Z,17.75
2023-05-10T10:51:29.840Z,17.76
2023-05-10T10:53:56.240Z,17.77
2023-05-10T10:56:22.377Z,17.76
2023-05-10T10:58:48.497Z,17.77
2023-05-10T11:01:14.682Z,17.77
2023-05-10T11:03:40.844Z,17.78
2023-05-10T11:06:06.977Z,17.77
2023-05-10T11:08:33.444Z,17.78
2023-05-10T11:11:00.673Z,17.78
2023-05-10T11:13:26.807Z,17.79
2023-05-10T11:15:52.894Z,17.79
2023-05-10T11:18:19.058Z,17.80
2023-05-10T11:20:45.177Z,17.79
2023-05-10T11:23:11.388Z,17.78
2023-05-10T11:25:37.541Z,17.79
2023-05-10T11:28:03.646Z,17.80
2023-05-10T11:30:29.767Z,17.80
2023-05-10T11:32:55.996Z,17.80
2023-05-10T11:35:22.106Z,17.80
2023-05-10T11:37:48.251Z,17.80
2023-05-10T11:40:14.709Z,17.82
2023-05-10T11:42:40.933Z,17.81
2023-05-10T11:45:07.074Z,17.82
2023-05-10T11:47:33.270Z,17.82
2023-05-10T11:49:59.371Z,17.81
2023-05-10T11:52:25.497Z,17.83
2023-05-10T11:54:51.627Z,17.82
2023-05-10T11:57:17.742Z,17.83
2023-05-10T11:59:43.971Z,17.83
2023-05-10T12:02:10.096Z,17.84
2023-05-10T12:04:36.267Z,17.84
2023-05-10T12:07:02.441Z,17.83
2023-05-10T12:09:42.444Z,17.84
2023-05-10T12:12:09.622Z,17.83
2023-05-10T12:14:35.776Z,17.85
2023-05-10T12:17:01.899Z,17.85
2023-05-10T12:19:28.023Z,17.84
2023-05-10T12:21:54.152Z,17.86
2023-05-10T12:24:20.263Z,17.84
2023-05-10T12:26:46.383Z,17.86
2023-05-10T12:29:12.525Z,17.84
2023-05-10T12:31:38.711Z,17.84
2023-05-10T12:34:04.873Z,17.85
2023-05-10T12:36:31.179Z,17.85
2023-05-10T12:38:57.419Z,17.85
2023-05-10T12:41:23.551Z,17.85
2023-05-10T12:43:49.688Z,17.84
2023-05-10T12:46:15.803Z,17.85
2023-05-10T12:48:41.917Z,17.86
2023-05-10T12:51:08.115Z,17.85
2023-05-10T12:53:34.231Z,17.86
2023-05-10T12:56:00.492Z,17.86
2023-05-10T12:58:35.488Z,17.84
2023-05-10T13:01:02.291Z,17.86
2023-05-10T13:03:28.451Z,17.86
2023-05-10T13:05:54.561Z,17.85
2023-05-10T13:08:20.720Z,17.86
2023-05-10T13:10:46.825Z,17.86
2023-05-10T13:13:13.261Z,17.86
2023-05-10T13:15:39.400Z,17.87
2023-05-10T13:18:05.550Z,17.86
2023-05-10T13:20:31.781Z,17.87
2023-05-10T13:22:57.879Z,17.86
2023-05-10T13:25:24.032Z,17.87
2023-05-10T13:27:50.135Z,17.86
2023-05-10T13:30:16.352Z,17.87
2023-05-10T13:32:42.725Z,17.87
2023-05-10T13:35:08.873Z,17.86
2023-05-10T13:37:35.000Z,17.87
2023-05-10T13:40:01.148Z,17.87
2023-05-10T13:42:27.256Z,17.87
2023-05-10T13:44:53.356Z,17.87
2023-05-10T13:47:19.877Z,17.87
2023-05-10T13:49:45.985Z,17.87
2023-05-10T13:52:12.084Z,17.88
2023-05-10T13:54:38.222Z,17.88
2023-05-10T13:57:04.319Z,17.90
2023-05-10T13:59:31.182Z,17.89
2023-05-10T14:01:57.340Z,17.90
2023-05-10T14:04:23.482Z,17.89
2023-05-10T14:06:49.592Z,17.90
2023-05-10T14:09:15.707Z,17.90
2023-05-10T14:11:41.815Z,17.90
2023-05-10T14:14:07.927Z,17.91
2023-05-10T14:16:34.239Z,17.90
2023-05-10T14:19:00.446Z,17.91
2023-05-10T14:21:26.570Z,17.92
2023-05-10T14:23:52.706Z,17.91
2023-05-10T14:26:18.818Z,17.91
2023-05-10T14:28:45.007Z,17.92
2023-05-10T14:31:11.173Z,17.92
2023-05-10T14:33:37.285Z,17.93
2023-05-10T14:36:03.384Z,17.93
2023-05-10T14:38:29.626Z,17.93
2023-05-10T14:40:55.822Z,17.92
2023-05-10T14:43:21.934Z,17.93
2023-05-10T14:45:48.094Z,17.95
2023-05-10T14:48:14.218Z,17.94
2023-05-10T14:50:40.314Z,17.93
2023-05-10T14:53:06.503Z,17.95
2023-05-10T14:55:32.595Z,17.95
2023-05-10T14:57:58.708Z,17.94
2023-05-10T15:00:25.160Z,17.95
2023-05-10T15:02:51.624Z,17.95
2023-05-10T15:05:18.591Z,17.96
2023-05-10T15:07:45.183Z,17.96
2023-05-10T15:10:11.321Z,17.96
2023-05-10T15:12:37.420Z,17.96
2023-05-10T15:15:03.551Z,17.96
2023-05-10T15:17:29.721Z,17.96
2023-05-10T15:19:55.858Z,17.96
2023-05-10T15:22:22.002Z,17.96
2023-05-10T15:24:48.098Z,17.97
2023-05-10T15:27:14.205Z,17.97
2023-05-10T15:29:40.327Z,17.98
2023-05-10T15:32:06.442Z,17.98
2023-05-10T15:34:34.911Z,17.98
2023-05-10T15:37:01.827Z,17.98
2023-05-10T15:39:27.962Z,17.98
2023-05-10T15:41:54.068Z,17.98
2023-05-10T15:44:20.214Z,17.98
2023-05-10T15:46:46.475Z,17.99
2023-05-10T15:49:12.633Z,17.99
2023-05-10T15:51:38.831Z,17.99
2023-05-10T15:54:07.694Z,17.99
2023-05-10T15:56:34.479Z,17.98
2023-05-10T15:59:00.627Z,17.99
2023-05-10T16:01:26.866Z,18.00
2023-05-10T16:03:53.053Z,18.00
2023-05-10T16:06:19.169Z,17.99
2023-05-10T16:08:45.277Z,18.00
2023-05-10T16:11:11.380Z,18.01
2023-05-10T16:13:37.501Z,18.01
2023-05-10T16:16:03.629Z,18.01
2023-05-10T16:18:29.880Z,18.01
2023-05-10T16:20:56.131Z,18.02
2023-05-10T16:23:22.334Z,18.02
2023-05-10T16:25:48.461Z,18.01
2023-05-10T16:28:14.577Z,18.02
2023-05-10T16:30:40.849Z,18.02
2023-05-10T16:35:47.447Z,18.03
2023-05-10T16:38:13.673Z,18.04
2023-05-10T16:40:39.825Z,18.03
2023-05-10T16:43:05.958Z,18.04
2023-05-10T16:45:32.067Z,18.05
2023-05-10T16:47:58.420Z,18.04
2023-05-10T16:50:24.557Z,18.04
2023-05-10T16:52:50.650Z,18.04
2023-05-10T16:55:16.968Z,18.04
2023-05-10T16:57:43.306Z,18.05
2023-05-10T17:00:09.418Z,18.04
2023-05-10T17:02:35.612Z,18.04
2023-05-10T17:05:01.791Z,18.05
2023-05-10T17:07:27.923Z,18.04
2023-05-10T17:09:54.014Z,18.05
2023-05-10T17:12:20.139Z,18.05
2023-05-10T17:14:46.226Z,18.04
2023-05-10T17:17:12.386Z,18.05
2023-05-10T17:19:38.502Z,18.05
2023-05-10T17:22:04.629Z,18.05
2023-05-10T17:24:32.673Z,18.05
2023-05-10T17:26:59.004Z,18.05
2023-05-10T17:29:25.083Z,18.05
2023-05-10T17:31:51.224Z,18.05
2023-05-10T17:34:17.349Z,18.06
2023-05-10T17:36:43.435Z,18.05
2023-05-10T17:39:09.537Z,18.06
2023-05-10T17:41:35.658Z,18.06
2023-05-10T17:44:01.747Z,18.07
2023-05-10T17:46:27.842Z,18.07
2023-05-10T17:48:54.095Z,18.07
2023-05-10T17:51:20.183Z,18.07
2023-05-10T17:53:46.289Z,18.06
2023-05-10T17:56:12.416Z,18.07
2023-05-10T17:58:38.529Z,18.07
2023-05-10T18:01:04.700Z,18.06
2023-05-10T18:03:30.826Z,18.05
2023-05-10T18:05:56.961Z,18.06
2023-05-10T18:08:23.131Z,18.08
2023-05-10T18:10:49.258Z,18.07
2023-05-10T18:13:15.382Z,18.08
2023-05-10T18:15:41.544Z,18.08
2023-05-10T18:18:07.823Z,18.07
2023-05-10T18:20:33.956Z,18.08
2023-05-10T18:23:00.141Z,18.09
2023-05-10T18:25:26.466Z,18.09
2023-05-10T18:27:52.557Z,18.08
2023-05-10T18:30:18.676Z,18.08
2023-05-10T18:32:44.830Z,18.08
2023-05-10T18:35:11.023Z,18.08
2023-05-10T18:37:37.153Z,18.09
2023-05-10T18:40:03.287Z,18.08
2023-05-10T18:42:29.385Z,18.08
2023-05-10T18:44:55.506Z,18.08
2023-05-10T18:47:21.742Z,18.07
2023-05-10T18:49:47.881Z,18.07
2023-05-10T18:52:13.993Z,18.06
2023-05-10T18:54:40.142Z,18.08
2023-05-10T18:57:06.242Z,18.08
2023-05-10T18:59:32.392Z,18.08
2023-05-10T19:01:58.667Z,18.08
2023-05-10T19:04:24.811Z,18.09
2023-05-10T19:06:50.923Z,18.08
2023-05-10T19:09:17.034Z,18.07
2023-05-10T19:11:43.227Z,18.09
2023-05-10T19:14:09.445Z,18.09
2023-05-10T19:16:37.065Z,18.10
2023-05-10T19:19:03.508Z,18.08
2023-05-10T19:21:32.392Z,18.09
2023-05-10T19:23:59.304Z,18.09
2023-05-10T19:26:25.428Z,18.09
2023-05-10T19:28:51.613Z,18.08
2023-05-10T19:31:17.875Z,18.08
2023-05-10T19:33:44.074Z,18.08
2023-05-10T19:36:10.186Z,18.09
2023-05-10T19:38:36.460Z,18.08
2023-05-10T19:41:02.645Z,18.09
2023-05-10T19:43:28.799Z,18.08
2023-05-10T19:45:55.034Z,18.09
2023-05-10T19:48:21.232Z,18.09
2023-05-10T19:50:47.429Z,18.08
2023-05-10T19:53:13.593Z,18.08
2023-05-10T19:55:39.774Z,18.08
2023-05-10T19:58:06.058Z,18.08
2023-05-10T20:00:32.201Z,18.07
2023-05-10T20:02:58.388Z,18.06
2023-05-10T20:05:24.650Z,18.06
2023-05-10T20:07:50.835Z,18.05
2023-05-10T20:10:16.959Z,18.06
2023-05-10T20:12:43.066Z,18.05
2023-05-10T20:15:09.190Z,18.06
2023-05-10T20:17:35.328Z,18.06
2023-05-10T20:20:01.477Z,18.05
2023-05-10T20:22:27.620Z,18.05
2023-05-10T20:24:55.843Z,18.05
2023-05-10T20:27:22.369Z,18.05
2023-05-10T20:29:48.500Z,18.05
2023-05-10T20:32:14.608Z,18.05
2023-05-10T20:34:40.746Z,18.05
2023-05-10T20:37:06.967Z,18.04
2023-05-10T20:39:33.076Z,18.04
2023-05-10T20:42:00.099Z,18.03
2023-05-10T20:44:26.210Z,18.04
2023-05-10T20:46:52.332Z,18.04
2023-05-10T20:49:18.429Z,18.03
2023-05-10T20:51:44.591Z,18.03
2023-05-10T20:54:10.680Z,18.02
2023-05-10T20:56:36.784Z,18.02
2023-05-10T20:59:02.912Z,18.02
2023-05-10T21:01:29.079Z,18.02
2023-05-10T21:03:55.171Z,18.02
2023-05-10T21:06:21.281Z,18.02
2023-05-10T21:08:47.401Z,18.01
2023-05-10T21:11:13.522Z,18.01
2023-05-10T21:13:39.690Z,18.02
2023-05-10T21:16:05.833Z,18.01
2023-05-10T21:18:32.048Z,18.01
2023-05-10T21:20:58.175Z,18.00
2023-05-10T21:23:24.272Z,18.00
2023-05-10T21:25:50.391Z,18.01
2023-05-10T21:28:16.546Z,18.00
2023-05-10T21:30:42.676Z,18.00
2023-05-10T21:33:08.818Z,17.99
2023-05-10T21:35:34.994Z,18.00
2023-05-10T21:38:01.112Z,18.00
2023-05-10T21:40:27.216Z,17.99
2023-05-10T21:42:53.324Z,17.99
2023-05-10T21:45:19.423Z,17.99
2023-05-10T21:47:45.569Z,17.99
2023-05-10T21:50:11.729Z,17.98
2023-05-10T21:52:37.828Z,17.98
2023-05-10T21:55:03.923Z,17.97
2023-05-10T21:57:30.202Z,17.98
2023-05-10T21:59:56.301Z,17.98
2023-05-10T22:02:22.483Z,17.97
2023-05-10T22:04:49.469Z,17.97
2023-05-10T22:07:15.623Z,17.97
2023-05-10T22:09:41.719Z,17.97
2023-05-10T22:12:07.884Z,17.98
2023-05-10T22:14:33.987Z,17.96
2023-05-10T22:17:00.222Z,17.96
2023-05-10T22:19:26.379Z,17.96
2023-05-10T22:21:52.480Z,17.96
2023-05-10T22:24:18.586Z,17.97
2023-05-10T22:26:44.720Z,17.96
2023-05-10T22:29:10.854Z,17.95
2023-05-10T22:31:36.985Z,17.95
2023-05-10T22:34:03.153Z,17.96
2023-05-10T22:36:29.258Z,17.95
2023-05-10T22:38:55.368Z,17.95
2023-05-10T22:41:21.565Z,17.94
2023-05-10T22:43:47.667Z,17.95
2023-05-10T22:46:13.800Z,17.95
2023-05-10T22:48:39.962Z,17.94
2023-05-10T22:51:06.078Z,17.94
2023-05-10T22:53:32.166Z,17.94
2023-05-10T22:55:58.275Z,17.92
2023-05-10T22:58:24.370Z,17.93
2023-05-10T23:00:50.463Z,17.93
2023-05-10T23:03:16.605Z,17.93
2023-05-10T23:05:42.704Z,17.92
2023-05-10T23:08:08.845Z,17.92
2023-05-10T23:10:34.960Z,17.91
2023-05-10T23:13:01.065Z,17.92
2023-05-10T23:15:27.160Z,17.92
2023-05-10T23:17:53.418Z,17.91
2023-05-10T23:20:19.810Z,17.91
2023-05-10T23:22:46.232Z,17.91
2023-05-10T23:25:12.443Z,17.91
2023-05-10T23:27:38.578Z,17.90
2023-05-10T23:30:04.729Z,17.90
2023-05-10T23:32:30.916Z,17.90
2023-05-10T23:34:57.053Z,17.90
2023-05-10T23:37:23.151Z,17.90
2023-05-10T23:39:49.276Z,17.90
2023-05-10T23:42:15.427Z,17.89
2023-05-10T23:44:41.549Z,17.88
2023-05-10T23:47:07.811Z,17.88
2023-05-10T23:49:33.910Z,17.88
2023-05-10T23:52:00.029Z,17.88
2023-05-10T23:54:26.142Z,17.88
2023-05-10T23:56:52.243Z,17.88
2023-05-10T23:59:18.355Z,17.88
